sensor_id;sensor_type;location;lat;lon;timestamp;temperature;humidity
59025;DHT22;44806;48.008;13.666;2022-12-24T00:00:40;10.40;99.90
59025;DHT22;44806;48.008;13.666;2022-12-24T00:03:07;10.40;99.90
59025;DHT22;44806;48.008;13.666;2022-12-24T00:05:37;10.30;99.90
59025;DHT22;44806;48.008;13.666;2022-12-24T00:08:04;10.40;99.90
59025;DHT22;44806;48.008;13.666;2022-12-24T00:10:33;10.30;99.90
59025;DHT22;44806;48.008;13.666;2022-12-24T00:13:03;10.40;99.90
59025;DHT22;44806;48.008;13.666;2022-12-24T00:15:31;10.40;99.90
59025;DHT22;44806;48.008;13.666;2022-12-24T00:17:58;10.40;99.90
59025;DHT22;44806;48.008;13.666;2022-12-24T00:20:25;10.40;99.90
59025;DHT22;44806;48.008;13.666;2022-12-24T00:22:53;10.40;99.90
59025;DHT22;44806;48.008;13.666;2022-12-24T00:25:21;10.40;99.90
59025;DHT22;44806;48.008;13.666;2022-12-24T00:27:50;10.40;99.90
59025;DHT22;44806;48.008;13.666;2022-12-24T00:30:17;10.40;99.90
59025;DHT22;44806;48.008;13.666;2022-12-24T00:32:45;10.40;99.90
59025;DHT22;44806;48.008;13.666;2022-12-24T00:35:12;10.40;99.90
59025;DHT22;44806;48.008;13.666;2022-12-24T00:37:40;10.40;99.90
59025;DHT22;44806;48.008;13.666;2022-12-24T00:40:08;10.40;99.90
59025;DHT22;44806;48.008;13.666;2022-12-24T00:42:36;10.40;99.90
59025;DHT22;44806;48.008;13.666;2022-12-24T00:45:06;10.40;99.90
59025;DHT22;44806;48.008;13.666;2022-12-24T00:47:33;10.40;99.90
59025;DHT22;44806;48.008;13.666;2022-12-24T00:50:01;10.40;99.90
59025;DHT22;44806;48.008;13.666;2022-12-24T00:52:28;10.50;99.90
59025;DHT22;44806;48.008;13.666;2022-12-24T00:54:55;10.50;99.90
59025;DHT22;44806;48.008;13.666;2022-12-24T00:57:23;10.50;99.90
59025;DHT22;44806;48.008;13.666;2022-12-24T00:59:50;10.50;99.90
59025;DHT22;44806;48.008;13.666;2022-12-24T01:02:19;10.40;99.90
59025;DHT22;44806;48.008;13.666;2022-12-24T01:04:47;10.50;99.90
59025;DHT22;44806;48.008;13.666;2022-12-24T01:07:32;10.40;99.90
59025;DHT22;44806;48.008;13.666;2022-12-24T01:09:59;10.40;99.90
59025;DHT22;44806;48.008;13.666;2022-12-24T01:12:26;10.40;99.90
59025;DHT22;44806;48.008;13.666;2022-12-24T01:14:54;10.40;99.90
59025;DHT22;44806;48.008;13.666;2022-12-24T01:17:23;10.40;99.90
59025;DHT22;44806;48.008;13.666;2022-12-24T01:19:52;10.40;99.90
59025;DHT22;44806;48.008;13.666;2022-12-24T01:22:20;10.40;99.90
59025;DHT22;44806;48.008;13.666;2022-12-24T01:24:47;10.40;99.90
59025;DHT22;44806;48.008;13.666;2022-12-24T01:27:15;10.40;99.90
59025;DHT22;44806;48.008;13.666;2022-12-24T01:29:42;10.40;99.90
59025;DHT22;44806;48.008;13.666;2022-12-24T01:32:10;10.40;99.90
59025;DHT22;44806;48.008;13.666;2022-12-24T01:34:40;10.40;99.90
59025;DHT22;44806;48.008;13.666;2022-12-24T01:37:08;10.40;99.90
59025;DHT22;44806;48.008;13.666;2022-12-24T01:39:35;10.40;99.90
59025;DHT22;44806;48.008;13.666;2022-12-24T01:42:15;10.40;99.90
59025;DHT22;44806;48.008;13.666;2022-12-24T01:45:33;10.40;99.90
59025;DHT22;44806;48.008;13.666;2022-12-24T01:48:13;10.40;99.90
59025;DHT22;44806;48.008;13.666;2022-12-24T01:50:43;10.40;99.90
59025;DHT22;44806;48.008;13.666;2022-12-24T01:53:13;10.40;99.90
59025;DHT22;44806;48.008;13.666;2022-12-24T01:55:46;10.40;99.90
59025;DHT22;44806;48.008;13.666;2022-12-24T01:58:15;10.40;99.90
59025;DHT22;44806;48.008;13.666;2022-12-24T02:00:43;10.40;99.90
59025;DHT22;44806;48.008;13.666;2022-12-24T02:03:11;10.40;99.90
59025;DHT22;44806;48.008;13.666;2022-12-24T02:05:47;10.40;99.90
59025;DHT22;44806;48.008;13.666;2022-12-24T02:08:15;10.40;99.90
59025;DHT22;44806;48.008;13.666;2022-12-24T02:10:43;10.40;99.90
59025;DHT22;44806;48.008;13.666;2022-12-24T02:13:11;10.40;99.90
59025;DHT22;44806;48.008;13.666;2022-12-24T02:15:50;10.40;99.90
59025;DHT22;44806;48.008;13.666;2022-12-24T02:18:25;10.50;99.90
59025;DHT22;44806;48.008;13.666;2022-12-24T02:27:22;10.30;99.90
59025;DHT22;44806;48.008;13.666;2022-12-24T02:30:05;10.20;99.90
59025;DHT22;44806;48.008;13.666;2022-12-24T02:32:56;10.20;99.90
59025;DHT22;44806;48.008;13.666;2022-12-24T02:35:35;10.10;99.90
59025;DHT22;44806;48.008;13.666;2022-12-24T02:38:11;10.10;99.90
59025;DHT22;44806;48.008;13.666;2022-12-24T02:40:44;10.00;99.90
59025;DHT22;44806;48.008;13.666;2022-12-24T02:43:18;10.00;99.90
59025;DHT22;44806;48.008;13.666;2022-12-24T02:45:54;10.00;99.90
59025;DHT22;44806;48.008;13.666;2022-12-24T02:48:23;10.00;99.90
59025;DHT22;44806;48.008;13.666;2022-12-24T02:51:01;9.90;99.90
59025;DHT22;44806;48.008;13.666;2022-12-24T02:53:29;9.90;99.90
59025;DHT22;44806;48.008;13.666;2022-12-24T02:56:15;9.90;99.90
59025;DHT22;44806;48.008;13.666;2022-12-24T02:58:58;9.90;99.90
59025;DHT22;44806;48.008;13.666;2022-12-24T03:01:36;9.90;99.90
59025;DHT22;44806;48.008;13.666;2022-12-24T03:04:15;9.90;99.90
59025;DHT22;44806;48.008;13.666;2022-12-24T03:06:50;9.80;99.90
59025;DHT22;44806;48.008;13.666;2022-12-24T03:09:25;9.90;99.90
59025;DHT22;44806;48.008;13.666;2022-12-24T03:11:57;9.90;99.90
59025;DHT22;44806;48.008;13.666;2022-12-24T03:14:28;9.80;99.90
59025;DHT22;44806;48.008;13.666;2022-12-24T03:16:58;9.80;99.90
59025;DHT22;44806;48.008;13.666;2022-12-24T03:19:27;9.80;99.90
59025;DHT22;44806;48.008;13.666;2022-12-24T03:21:57;9.80;99.90
59025;DHT22;44806;48.008;13.666;2022-12-24T03:24:25;9.80;99.90
59025;DHT22;44806;48.008;13.666;2022-12-24T03:26:52;9.80;99.90
59025;DHT22;44806;48.008;13.666;2022-12-24T03:29:20;9.80;99.90
59025;DHT22;44806;48.008;13.666;2022-12-24T03:31:49;9.70;99.90
59025;DHT22;44806;48.008;13.666;2022-12-24T03:34:18;9.80;99.90
59025;DHT22;44806;48.008;13.666;2022-12-24T03:36:46;9.70;99.90
59025;DHT22;44806;48.008;13.666;2022-12-24T03:39:14;9.70;99.90
59025;DHT22;44806;48.008;13.666;2022-12-24T03:41:42;9.70;99.90
59025;DHT22;44806;48.008;13.666;2022-12-24T03:44:11;9.70;99.90
59025;DHT22;44806;48.008;13.666;2022-12-24T03:46:38;9.70;99.90
59025;DHT22;44806;48.008;13.666;2022-12-24T03:49:06;9.70;99.90
59025;DHT22;44806;48.008;13.666;2022-12-24T03:51:35;9.60;99.90
59025;DHT22;44806;48.008;13.666;2022-12-24T03:54:02;9.60;99.90
59025;DHT22;44806;48.008;13.666;2022-12-24T03:56:30;9.60;99.90
59025;DHT22;44806;48.008;13.666;2022-12-24T03:58:57;9.60;99.90
59025;DHT22;44806;48.008;13.666;2022-12-24T04:01:24;9.60;99.90
59025;DHT22;44806;48.008;13.666;2022-12-24T04:03:52;9.70;99.90
59025;DHT22;44806;48.008;13.666;2022-12-24T04:06:19;9.70;99.90
59025;DHT22;44806;48.008;13.666;2022-12-24T04:08:50;9.70;99.90
59025;DHT22;44806;48.008;13.666;2022-12-24T04:11:20;9.70;99.90
59025;DHT22;44806;48.008;13.666;2022-12-24T04:13:48;9.70;99.90
59025;DHT22;44806;48.008;13.666;2022-12-24T04:16:18;9.70;99.90
59025;DHT22;44806;48.008;13.666;2022-12-24T04:18:45;9.80;99.90
59025;DHT22;44806;48.008;13.666;2022-12-24T04:21:13;9.80;99.90
59025;DHT22;44806;48.008;13.666;2022-12-24T04:23:41;9.80;99.90
59025;DHT22;44806;48.008;13.666;2022-12-24T04:26:16;9.90;99.90
59025;DHT22;44806;48.008;13.666;2022-12-24T04:28:43;9.90;99.90
59025;DHT22;44806;48.008;13.666;2022-12-24T04:31:12;9.90;99.90
59025;DHT22;44806;48.008;13.666;2022-12-24T04:33:39;9.90;99.90
59025;DHT22;44806;48.008;13.666;2022-12-24T04:36:09;9.90;99.90
59025;DHT22;44806;48.008;13.666;2022-12-24T04:38:39;9.90;99.90
59025;DHT22;44806;48.008;13.666;2022-12-24T04:41:12;9.90;99.90
59025;DHT22;44806;48.008;13.666;2022-12-24T04:43:40;9.90;99.90
59025;DHT22;44806;48.008;13.666;2022-12-24T04:46:10;9.90;99.90
59025;DHT22;44806;48.008;13.666;2022-12-24T04:48:40;9.90;99.90
59025;DHT22;44806;48.008;13.666;2022-12-24T04:51:08;9.90;99.90
59025;DHT22;44806;48.008;13.666;2022-12-24T04:53:36;10.00;99.90
59025;DHT22;44806;48.008;13.666;2022-12-24T04:56:08;10.00;99.90
59025;DHT22;44806;48.008;13.666;2022-12-24T04:58:38;10.00;99.90
59025;DHT22;44806;48.008;13.666;2022-12-24T05:01:07;10.10;99.90
59025;DHT22;44806;48.008;13.666;2022-12-24T05:03:34;10.10;99.90
59025;DHT22;44806;48.008;13.666;2022-12-24T05:06:02;10.10;99.90
59025;DHT22;44806;48.008;13.666;2022-12-24T05:08:30;10.10;99.90
59025;DHT22;44806;48.008;13.666;2022-12-24T05:10:59;10.10;99.90
59025;DHT22;44806;48.008;13.666;2022-12-24T05:13:29;10.10;99.90
59025;DHT22;44806;48.008;13.666;2022-12-24T05:16:00;10.20;99.90
59025;DHT22;44806;48.008;13.666;2022-12-24T05:18:28;10.20;99.90
59025;DHT22;44806;48.008;13.666;2022-12-24T05:20:55;10.20;99.90
59025;DHT22;44806;48.008;13.666;2022-12-24T05:23:24;10.20;99.90
59025;DHT22;44806;48.008;13.666;2022-12-24T05:26:15;10.30;99.90
59025;DHT22;44806;48.008;13.666;2022-12-24T05:28:53;10.30;99.90
59025;DHT22;44806;48.008;13.666;2022-12-24T05:31:23;10.30;99.90
59025;DHT22;44806;48.008;13.666;2022-12-24T05:33:51;10.30;99.90
59025;DHT22;44806;48.008;13.666;2022-12-24T05:36:20;10.40;99.90
59025;DHT22;44806;48.008;13.666;2022-12-24T05:38:48;10.30;99.90
59025;DHT22;44806;48.008;13.666;2022-12-24T05:41:16;10.40;99.90
59025;DHT22;44806;48.008;13.666;2022-12-24T05:43:43;10.40;99.90
59025;DHT22;44806;48.008;13.666;2022-12-24T05:46:13;10.40;99.90
59025;DHT22;44806;48.008;13.666;2022-12-24T05:48:42;10.40;99.90
59025;DHT22;44806;48.008;13.666;2022-12-24T05:51:11;10.40;99.90
59025;DHT22;44806;48.008;13.666;2022-12-24T05:53:39;10.50;99.90
59025;DHT22;44806;48.008;13.666;2022-12-24T05:56:09;10.40;99.90
59025;DHT22;44806;48.008;13.666;2022-12-24T05:58:38;10.50;99.90
59025;DHT22;44806;48.008;13.666;2022-12-24T06:01:08;10.40;99.90
59025;DHT22;44806;48.008;13.666;2022-12-24T06:03:36;10.40;99.90
59025;DHT22;44806;48.008;13.666;2022-12-24T06:06:07;10.40;99.90
59025;DHT22;44806;48.008;13.666;2022-12-24T06:08:35;10.40;99.90
59025;DHT22;44806;48.008;13.666;2022-12-24T06:11:05;10.40;99.90
59025;DHT22;44806;48.008;13.666;2022-12-24T06:13:35;10.40;99.90
59025;DHT22;44806;48.008;13.666;2022-12-24T06:16:04;10.40;99.90
59025;DHT22;44806;48.008;13.666;2022-12-24T06:18:34;10.40;99.90
59025;DHT22;44806;48.008;13.666;2022-12-24T06:21:03;10.40;99.90
59025;DHT22;44806;48.008;13.666;2022-12-24T06:23:39;10.40;99.90
59025;DHT22;44806;48.008;13.666;2022-12-24T06:26:11;10.40;99.90
59025;DHT22;44806;48.008;13.666;2022-12-24T06:28:39;10.40;99.90
59025;DHT22;44806;48.008;13.666;2022-12-24T06:31:10;10.40;99.90
59025;DHT22;44806;48.008;13.666;2022-12-24T06:33:38;10.30;99.90
59025;DHT22;44806;48.008;13.666;2022-12-24T06:36:06;10.20;99.90
59025;DHT22;44806;48.008;13.666;2022-12-24T06:38:34;10.10;99.90
59025;DHT22;44806;48.008;13.666;2022-12-24T06:41:06;10.10;99.90
59025;DHT22;44806;48.008;13.666;2022-12-24T06:43:34;10.00;99.90
59025;DHT22;44806;48.008;13.666;2022-12-24T06:46:02;9.90;99.90
59025;DHT22;44806;48.008;13.666;2022-12-24T06:48:30;9.80;99.90
59025;DHT22;44806;48.008;13.666;2022-12-24T06:50:57;9.70;99.90
59025;DHT22;44806;48.008;13.666;2022-12-24T06:53:27;9.50;99.90
59025;DHT22;44806;48.008;13.666;2022-12-24T06:56:00;9.50;99.90
59025;DHT22;44806;48.008;13.666;2022-12-24T06:58:29;9.40;99.90
59025;DHT22;44806;48.008;13.666;2022-12-24T07:00:57;9.30;99.90
59025;DHT22;44806;48.008;13.666;2022-12-24T07:03:27;9.30;99.90
59025;DHT22;44806;48.008;13.666;2022-12-24T07:05:54;9.20;99.90
59025;DHT22;44806;48.008;13.666;2022-12-24T07:08:22;9.10;99.90
59025;DHT22;44806;48.008;13.666;2022-12-24T07:10:51;9.10;99.90
59025;DHT22;44806;48.008;13.666;2022-12-24T07:13:21;9.10;99.90
59025;DHT22;44806;48.008;13.666;2022-12-24T07:15:58;9.00;99.90
59025;DHT22;44806;48.008;13.666;2022-12-24T07:18:28;9.00;99.90
59025;DHT22;44806;48.008;13.666;2022-12-24T07:20:56;9.00;99.90
59025;DHT22;44806;48.008;13.666;2022-12-24T07:23:24;9.10;99.90
59025;DHT22;44806;48.008;13.666;2022-12-24T07:25:51;9.10;99.90
59025;DHT22;44806;48.008;13.666;2022-12-24T07:28:19;9.20;99.90
59025;DHT22;44806;48.008;13.666;2022-12-24T07:30:47;9.20;99.90
59025;DHT22;44806;48.008;13.666;2022-12-24T07:33:16;9.20;99.90
59025;DHT22;44806;48.008;13.666;2022-12-24T07:35:47;9.20;99.90
59025;DHT22;44806;48.008;13.666;2022-12-24T07:38:17;9.30;99.90
59025;DHT22;44806;48.008;13.666;2022-12-24T07:40:46;9.30;99.90
59025;DHT22;44806;48.008;13.666;2022-12-24T07:43:14;9.30;99.90
59025;DHT22;44806;48.008;13.666;2022-12-24T07:45:45;9.30;99.90
59025;DHT22;44806;48.008;13.666;2022-12-24T07:48:12;9.30;99.90
59025;DHT22;44806;48.008;13.666;2022-12-24T07:50:41;9.30;99.90
59025;DHT22;44806;48.008;13.666;2022-12-24T07:53:09;9.30;99.90
59025;DHT22;44806;48.008;13.666;2022-12-24T07:55:36;9.30;99.90
59025;DHT22;44806;48.008;13.666;2022-12-24T07:58:06;9.30;99.90
59025;DHT22;44806;48.008;13.666;2022-12-24T08:00:34;9.30;99.90
59025;DHT22;44806;48.008;13.666;2022-12-24T08:03:01;9.10;99.90
59025;DHT22;44806;48.008;13.666;2022-12-24T08:05:33;9.10;99.90
59025;DHT22;44806;48.008;13.666;2022-12-24T08:08:02;9.10;99.90
59025;DHT22;44806;48.008;13.666;2022-12-24T08:10:37;9.10;99.90
59025;DHT22;44806;48.008;13.666;2022-12-24T08:13:05;9.00;99.90
59025;DHT22;44806;48.008;13.666;2022-12-24T08:15:36;9.00;99.90
59025;DHT22;44806;48.008;13.666;2022-12-24T08:18:03;9.00;99.90
59025;DHT22;44806;48.008;13.666;2022-12-24T08:20:31;9.00;99.90
59025;DHT22;44806;48.008;13.666;2022-12-24T08:23:03;9.00;99.90
59025;DHT22;44806;48.008;13.666;2022-12-24T08:25:31;9.00;99.90
59025;DHT22;44806;48.008;13.666;2022-12-24T08:28:01;9.00;99.90
59025;DHT22;44806;48.008;13.666;2022-12-24T08:30:29;9.00;99.90
59025;DHT22;44806;48.008;13.666;2022-12-24T08:32:56;9.10;99.90
59025;DHT22;44806;48.008;13.666;2022-12-24T08:35:24;9.10;99.90
59025;DHT22;44806;48.008;13.666;2022-12-24T08:37:55;9.00;99.90
59025;DHT22;44806;48.008;13.666;2022-12-24T08:40:24;9.00;99.90
59025;DHT22;44806;48.008;13.666;2022-12-24T08:42:52;9.00;99.90
59025;DHT22;44806;48.008;13.666;2022-12-24T08:45:20;9.00;99.90
59025;DHT22;44806;48.008;13.666;2022-12-24T08:47:47;9.00;99.90
59025;DHT22;44806;48.008;13.666;2022-12-24T08:50:15;9.00;99.90
59025;DHT22;44806;48.008;13.666;2022-12-24T08:52:45;9.10;99.90
59025;DHT22;44806;48.008;13.666;2022-12-24T08:55:17;9.10;99.90
59025;DHT22;44806;48.008;13.666;2022-12-24T08:57:46;9.10;99.90
59025;DHT22;44806;48.008;13.666;2022-12-24T09:00:17;9.20;99.90
59025;DHT22;44806;48.008;13.666;2022-12-24T09:02:44;9.20;99.90
59025;DHT22;44806;48.008;13.666;2022-12-24T09:05:12;9.30;99.90
59025;DHT22;44806;48.008;13.666;2022-12-24T09:07:40;9.40;99.90
59025;DHT22;44806;48.008;13.666;2022-12-24T09:10:10;9.50;99.90
59025;DHT22;44806;48.008;13.666;2022-12-24T09:12:38;9.50;99.90
59025;DHT22;44806;48.008;13.666;2022-12-24T09:15:08;9.60;99.90
59025;DHT22;44806;48.008;13.666;2022-12-24T09:17:35;9.60;99.90
59025;DHT22;44806;48.008;13.666;2022-12-24T09:20:04;9.60;99.90
59025;DHT22;44806;48.008;13.666;2022-12-24T09:22:34;9.60;99.90
59025;DHT22;44806;48.008;13.666;2022-12-24T09:25:02;9.60;99.90
59025;DHT22;44806;48.008;13.666;2022-12-24T09:27:32;9.60;99.90
59025;DHT22;44806;48.008;13.666;2022-12-24T09:30:03;9.60;99.90
59025;DHT22;44806;48.008;13.666;2022-12-24T09:32:34;9.60;99.90
59025;DHT22;44806;48.008;13.666;2022-12-24T09:35:02;9.60;99.90
59025;DHT22;44806;48.008;13.666;2022-12-24T09:37:32;9.60;99.90
59025;DHT22;44806;48.008;13.666;2022-12-24T09:40:05;9.70;99.90
59025;DHT22;44806;48.008;13.666;2022-12-24T09:42:44;9.70;99.90
59025;DHT22;44806;48.008;13.666;2022-12-24T09:45:18;9.70;99.90
59025;DHT22;44806;48.008;13.666;2022-12-24T09:47:53;9.70;99.90
59025;DHT22;44806;48.008;13.666;2022-12-24T09:50:28;9.70;99.90
59025;DHT22;44806;48.008;13.666;2022-12-24T09:52:57;9.80;99.90
59025;DHT22;44806;48.008;13.666;2022-12-24T09:55:34;9.70;99.90
59025;DHT22;44806;48.008;13.666;2022-12-24T09:58:05;9.80;99.90
59025;DHT22;44806;48.008;13.666;2022-12-24T10:00:36;9.70;99.90
59025;DHT22;44806;48.008;13.666;2022-12-24T10:03:13;9.70;99.90
59025;DHT22;44806;48.008;13.666;2022-12-24T10:05:44;9.70;99.90
59025;DHT22;44806;48.008;13.666;2022-12-24T10:08:22;9.70;99.90
59025;DHT22;44806;48.008;13.666;2022-12-24T10:10:57;9.70;99.90
59025;DHT22;44806;48.008;13.666;2022-12-24T10:13:36;9.70;99.90
59025;DHT22;44806;48.008;13.666;2022-12-24T10:16:10;9.80;99.90
59025;DHT22;44806;48.008;13.666;2022-12-24T10:18:51;9.80;99.90
59025;DHT22;44806;48.008;13.666;2022-12-24T10:21:29;9.90;99.90
59025;DHT22;44806;48.008;13.666;2022-12-24T10:24:06;9.90;99.90
59025;DHT22;44806;48.008;13.666;2022-12-24T10:26:49;9.90;99.90
59025;DHT22;44806;48.008;13.666;2022-12-24T10:29:23;10.00;99.90
59025;DHT22;44806;48.008;13.666;2022-12-24T10:31:54;9.90;99.90
59025;DHT22;44806;48.008;13.666;2022-12-24T10:34:29;10.00;99.90
59025;DHT22;44806;48.008;13.666;2022-12-24T10:37:00;10.00;99.90
59025;DHT22;44806;48.008;13.666;2022-12-24T10:39:35;10.10;99.90
59025;DHT22;44806;48.008;13.666;2022-12-24T10:42:04;10.10;99.90
59025;DHT22;44806;48.008;13.666;2022-12-24T10:44:34;10.10;99.90
59025;DHT22;44806;48.008;13.666;2022-12-24T10:47:06;10.10;99.90
59025;DHT22;44806;48.008;13.666;2022-12-24T10:49:42;10.10;99.90
59025;DHT22;44806;48.008;13.666;2022-12-24T10:52:12;10.10;99.90
59025;DHT22;44806;48.008;13.666;2022-12-24T10:55:05;10.10;99.90
59025;DHT22;44806;48.008;13.666;2022-12-24T10:57:39;10.20;99.90
59025;DHT22;44806;48.008;13.666;2022-12-24T11:00:17;10.20;99.90
59025;DHT22;44806;48.008;13.666;2022-12-24T11:02:49;10.20;99.90
59025;DHT22;44806;48.008;13.666;2022-12-24T11:05:40;10.20;99.90
59025;DHT22;44806;48.008;13.666;2022-12-24T11:08:15;10.10;99.90
59025;DHT22;44806;48.008;13.666;2022-12-24T11:10:54;10.10;99.90
59025;DHT22;44806;48.008;13.666;2022-12-24T11:13:24;10.20;99.90
59025;DHT22;44806;48.008;13.666;2022-12-24T11:16:00;10.20;99.90
59025;DHT22;44806;48.008;13.666;2022-12-24T11:18:28;10.20;99.90
59025;DHT22;44806;48.008;13.666;2022-12-24T11:21:02;10.20;99.90
59025;DHT22;44806;48.008;13.666;2022-12-24T11:23:31;10.20;99.90
59025;DHT22;44806;48.008;13.666;2022-12-24T11:26:01;10.20;99.90
59025;DHT22;44806;48.008;13.666;2022-12-24T11:28:30;10.10;99.90
59025;DHT22;44806;48.008;13.666;2022-12-24T11:31:04;10.20;99.90
59025;DHT22;44806;48.008;13.666;2022-12-24T11:33:45;10.20;99.90
59025;DHT22;44806;48.008;13.666;2022-12-24T11:36:20;10.20;99.90
59025;DHT22;44806;48.008;13.666;2022-12-24T11:38:52;10.20;99.90
59025;DHT22;44806;48.008;13.666;2022-12-24T11:41:20;10.20;99.90
59025;DHT22;44806;48.008;13.666;2022-12-24T11:43:57;10.20;99.90
59025;DHT22;44806;48.008;13.666;2022-12-24T11:46:38;10.20;99.90
59025;DHT22;44806;48.008;13.666;2022-12-24T11:49:23;10.30;99.90
59025;DHT22;44806;48.008;13.666;2022-12-24T11:52:13;10.30;99.90
59025;DHT22;44806;48.008;13.666;2022-12-24T11:54:50;10.30;99.90
59025;DHT22;44806;48.008;13.666;2022-12-24T11:57:27;10.40;99.90
59025;DHT22;44806;48.008;13.666;2022-12-24T11:59:58;10.40;99.90
59025;DHT22;44806;48.008;13.666;2022-12-24T12:02:28;10.40;99.90
59025;DHT22;44806;48.008;13.666;2022-12-24T12:05:02;10.50;99.90
59025;DHT22;44806;48.008;13.666;2022-12-24T12:07:34;10.50;99.90
59025;DHT22;44806;48.008;13.666;2022-12-24T12:10:05;10.50;99.90
59025;DHT22;44806;48.008;13.666;2022-12-24T12:12:36;10.60;99.90
59025;DHT22;44806;48.008;13.666;2022-12-24T12:15:11;10.60;99.90
59025;DHT22;44806;48.008;13.666;2022-12-24T12:17:43;10.60;99.90
59025;DHT22;44806;48.008;13.666;2022-12-24T12:20:20;10.60;99.90
59025;DHT22;44806;48.008;13.666;2022-12-24T12:22:57;10.70;99.90
59025;DHT22;44806;48.008;13.666;2022-12-24T12:25:34;10.70;99.90
59025;DHT22;44806;48.008;13.666;2022-12-24T12:28:10;10.70;99.90
59025;DHT22;44806;48.008;13.666;2022-12-24T12:30:40;10.70;99.90
59025;DHT22;44806;48.008;13.666;2022-12-24T12:33:16;10.60;99.90
59025;DHT22;44806;48.008;13.666;2022-12-24T12:35:46;10.60;99.90
59025;DHT22;44806;48.008;13.666;2022-12-24T12:38:23;10.60;99.90
59025;DHT22;44806;48.008;13.666;2022-12-24T12:41:08;10.60;99.90
59025;DHT22;44806;48.008;13.666;2022-12-24T12:44:08;10.70;99.90
59025;DHT22;44806;48.008;13.666;2022-12-24T12:46:55;10.70;99.90
59025;DHT22;44806;48.008;13.666;2022-12-24T12:49:34;10.70;99.90
59025;DHT22;44806;48.008;13.666;2022-12-24T12:52:17;10.70;99.90
59025;DHT22;44806;48.008;13.666;2022-12-24T12:55:01;10.70;99.90
59025;DHT22;44806;48.008;13.666;2022-12-24T12:57:37;10.70;99.90
59025;DHT22;44806;48.008;13.666;2022-12-24T13:00:07;10.70;99.90
59025;DHT22;44806;48.008;13.666;2022-12-24T13:06:25;10.80;99.90
59025;DHT22;44806;48.008;13.666;2022-12-24T13:12:09;10.90;99.90
59025;DHT22;44806;48.008;13.666;2022-12-24T13:15:10;10.90;99.90
59025;DHT22;44806;48.008;13.666;2022-12-24T13:18:04;10.90;99.90
59025;DHT22;44806;48.008;13.666;2022-12-24T13:20:39;11.00;99.90
59025;DHT22;44806;48.008;13.666;2022-12-24T13:23:14;10.90;99.90
59025;DHT22;44806;48.008;13.666;2022-12-24T13:25:45;10.90;99.90
59025;DHT22;44806;48.008;13.666;2022-12-24T14:07:44;9.90;99.90
59025;DHT22;44806;48.008;13.666;2022-12-24T14:10:20;10.30;99.90
59025;DHT22;44806;48.008;13.666;2022-12-24T14:12:50;10.40;99.90
59025;DHT22;44806;48.008;13.666;2022-12-24T14:18:25;10.60;99.90
59025;DHT22;44806;48.008;13.666;2022-12-24T14:21:01;10.70;99.90
59025;DHT22;44806;48.008;13.666;2022-12-24T14:23:39;10.70;99.90
59025;DHT22;44806;48.008;13.666;2022-12-24T14:26:16;10.80;99.90
59025;DHT22;44806;48.008;13.666;2022-12-24T14:28:53;10.80;99.90
59025;DHT22;44806;48.008;13.666;2022-12-24T14:31:22;10.90;99.90
59025;DHT22;44806;48.008;13.666;2022-12-24T14:33:51;10.90;99.90
59025;DHT22;44806;48.008;13.666;2022-12-24T14:36:21;10.80;99.90
59025;DHT22;44806;48.008;13.666;2022-12-24T14:38:51;10.80;99.90
59025;DHT22;44806;48.008;13.666;2022-12-24T14:41:38;10.80;99.90
59025;DHT22;44806;48.008;13.666;2022-12-24T14:44:22;10.80;99.90
59025;DHT22;44806;48.008;13.666;2022-12-24T14:46:55;10.80;99.90
59025;DHT22;44806;48.008;13.666;2022-12-24T14:49:35;10.80;99.90
59025;DHT22;44806;48.008;13.666;2022-12-24T14:52:11;10.80;99.90
59025;DHT22;44806;48.008;13.666;2022-12-24T14:54:45;10.80;99.90
59025;DHT22;44806;48.008;13.666;2022-12-24T14:57:24;10.70;99.90
59025;DHT22;44806;48.008;13.666;2022-12-24T14:59:53;10.70;99.90
59025;DHT22;44806;48.008;13.666;2022-12-24T15:02:30;10.70;99.90
59025;DHT22;44806;48.008;13.666;2022-12-24T15:05:09;10.70;99.90
59025;DHT22;44806;48.008;13.666;2022-12-24T15:07:41;10.60;99.90
59025;DHT22;44806;48.008;13.666;2022-12-24T15:10:29;10.60;99.90
59025;DHT22;44806;48.008;13.666;2022-12-24T15:13:01;10.60;99.90
59025;DHT22;44806;48.008;13.666;2022-12-24T15:15:30;10.50;99.90
59025;DHT22;44806;48.008;13.666;2022-12-24T15:18:01;10.50;99.90
59025;DHT22;44806;48.008;13.666;2022-12-24T15:20:30;10.50;99.90
59025;DHT22;44806;48.008;13.666;2022-12-24T15:22:58;10.50;99.90
59025;DHT22;44806;48.008;13.666;2022-12-24T15:25:29;10.40;99.90
59025;DHT22;44806;48.008;13.666;2022-12-24T15:27:58;10.30;99.90
59025;DHT22;44806;48.008;13.666;2022-12-24T15:30:31;10.40;99.90
59025;DHT22;44806;48.008;13.666;2022-12-24T15:33:03;10.40;99.90
59025;DHT22;44806;48.008;13.666;2022-12-24T15:35:47;10.30;99.90
59025;DHT22;44806;48.008;13.666;2022-12-24T15:38:31;10.40;99.90
59025;DHT22;44806;48.008;13.666;2022-12-24T15:41:03;10.30;99.90
59025;DHT22;44806;48.008;13.666;2022-12-24T15:43:38;10.30;99.90
59025;DHT22;44806;48.008;13.666;2022-12-24T15:46:17;10.40;99.90
59025;DHT22;44806;48.008;13.666;2022-12-24T15:48:48;10.30;99.90
59025;DHT22;44806;48.008;13.666;2022-12-24T15:51:28;10.20;99.90
59025;DHT22;44806;48.008;13.666;2022-12-24T15:53:58;10.20;99.90
59025;DHT22;44806;48.008;13.666;2022-12-24T15:56:34;10.20;99.90
59025;DHT22;44806;48.008;13.666;2022-12-24T15:59:33;10.20;99.90
59025;DHT22;44806;48.008;13.666;2022-12-24T16:02:38;10.10;99.90
59025;DHT22;44806;48.008;13.666;2022-12-24T16:05:31;10.10;99.90
59025;DHT22;44806;48.008;13.666;2022-12-24T16:10:48;10.10;99.90
59025;DHT22;44806;48.008;13.666;2022-12-24T16:13:20;10.00;99.90
59025;DHT22;44806;48.008;13.666;2022-12-24T16:15:52;9.90;99.90
59025;DHT22;44806;48.008;13.666;2022-12-24T16:18:27;9.90;99.90
59025;DHT22;44806;48.008;13.666;2022-12-24T16:20:57;9.90;99.90
59025;DHT22;44806;48.008;13.666;2022-12-24T16:23:25;9.80;99.90
59025;DHT22;44806;48.008;13.666;2022-12-24T16:25:57;9.80;99.90
59025;DHT22;44806;48.008;13.666;2022-12-24T16:28:26;9.80;99.90
59025;DHT22;44806;48.008;13.666;2022-12-24T16:30:55;9.80;99.90
59025;DHT22;44806;48.008;13.666;2022-12-24T16:33:28;9.80;99.90
59025;DHT22;44806;48.008;13.666;2022-12-24T16:35:56;9.80;99.90
59025;DHT22;44806;48.008;13.666;2022-12-24T16:38:26;9.70;99.90
59025;DHT22;44806;48.008;13.666;2022-12-24T16:41:16;9.70;99.90
59025;DHT22;44806;48.008;13.666;2022-12-24T16:43:47;9.60;99.90
59025;DHT22;44806;48.008;13.666;2022-12-24T16:46:19;9.50;99.90
59025;DHT22;44806;48.008;13.666;2022-12-24T16:48:50;9.40;99.90
59025;DHT22;44806;48.008;13.666;2022-12-24T16:51:20;9.40;99.90